sensor_id;sensor_type;location;lat;lon;timestamp;temperature;humidity
18794;DHT22;29610;49.022;12.114;2023-12-20T00:00:05;2.50;99.90
18794;DHT22;29610;49.022;12.114;2023-12-20T00:02:34;2.50;99.90
18794;DHT22;29610;49.022;12.114;2023-12-20T00:05:03;2.50;99.90
18794;DHT22;29610;49.022;12.114;2023-12-20T00:07:32;2.50;99.90
18794;DHT22;29610;49.022;12.114;2023-12-20T00:10:01;2.50;99.90
18794;DHT22;29610;49.022;12.114;2023-12-20T00:12:31;2.50;99.90
18794;DHT22;29610;49.022;12.114;2023-12-20T00:14:59;2.50;99.90
18794;DHT22;29610;49.022;12.114;2023-12-20T00:17:27;2.50;99.90
18794;DHT22;29610;49.022;12.114;2023-12-20T00:19:55;2.50;99.90
18794;DHT22;29610;49.022;12.114;2023-12-20T00:22:23;2.50;99.90
18794;DHT22;29610;49.022;12.114;2023-12-20T00:24:52;2.60;99.90
18794;DHT22;29610;49.022;12.114;2023-12-20T00:27:20;2.50;99.90
18794;DHT22;29610;49.022;12.114;2023-12-20T00:29:50;2.60;99.90
18794;DHT22;29610;49.022;12.114;2023-12-20T00:32:18;2.60;99.90
18794;DHT22;29610;49.022;12.114;2023-12-20T00:34:46;2.60;99.90
18794;DHT22;29610;49.022;12.114;2023-12-20T00:37:15;2.60;99.90
18794;DHT22;29610;49.022;12.114;2023-12-20T00:39:43;2.60;99.90
18794;DHT22;29610;49.022;12.114;2023-12-20T00:42:11;2.60;99.90
18794;DHT22;29610;49.022;12.114;2023-12-20T00:44:40;2.60;99.90
18794;DHT22;29610;49.022;12.114;2023-12-20T00:47:09;2.60;99.90
18794;DHT22;29610;49.022;12.114;2023-12-20T00:49:38;2.70;99.90
18794;DHT22;29610;49.022;12.114;2023-12-20T00:52:06;2.70;99.90
18794;DHT22;29610;49.022;12.114;2023-12-20T00:54:34;2.70;99.90
18794;DHT22;29610;49.022;12.114;2023-12-20T00:57:03;2.70;99.90
18794;DHT22;29610;49.022;12.114;2023-12-20T00:59:31;2.70;99.90
18794;DHT22;29610;49.022;12.114;2023-12-20T01:01:59;2.70;99.90
18794;DHT22;29610;49.022;12.114;2023-12-20T01:04:29;2.70;99.90
18794;DHT22;29610;49.022;12.114;2023-12-20T01:06:57;2.70;99.90
18794;DHT22;29610;49.022;12.114;2023-12-20T01:09:26;2.70;99.90
18794;DHT22;29610;49.022;12.114;2023-12-20T01:11:54;2.70;99.90
18794;DHT22;29610;49.022;12.114;2023-12-20T01:14:23;2.70;99.90
18794;DHT22;29610;49.022;12.114;2023-12-20T01:16:52;2.70;99.90
18794;DHT22;29610;49.022;12.114;2023-12-20T01:19:21;2.70;99.90
18794;DHT22;29610;49.022;12.114;2023-12-20T01:21:52;2.70;99.90
18794;DHT22;29610;49.022;12.114;2023-12-20T01:24:20;2.70;99.90
18794;DHT22;29610;49.022;12.114;2023-12-20T01:26:48;2.70;99.90
18794;DHT22;29610;49.022;12.114;2023-12-20T01:29:16;2.70;99.90
18794;DHT22;29610;49.022;12.114;2023-12-20T01:31:45;2.80;99.90
18794;DHT22;29610;49.022;12.114;2023-12-20T01:34:13;2.80;99.90
18794;DHT22;29610;49.022;12.114;2023-12-20T01:36:42;2.80;99.90
18794;DHT22;29610;49.022;12.114;2023-12-20T01:39:12;2.80;99.90
18794;DHT22;29610;49.022;12.114;2023-12-20T01:41:54;2.80;99.90
18794;DHT22;29610;49.022;12.114;2023-12-20T01:44:22;2.80;99.90
18794;DHT22;29610;49.022;12.114;2023-12-20T01:46:51;2.80;99.90
18794;DHT22;29610;49.022;12.114;2023-12-20T01:49:19;2.80;99.90
18794;DHT22;29610;49.022;12.114;2023-12-20T01:51:49;2.80;99.90
18794;DHT22;29610;49.022;12.114;2023-12-20T01:54:19;1.90;99.90
18794;DHT22;29610;49.022;12.114;2023-12-20T01:56:49;2.80;99.90
18794;DHT22;29610;49.022;12.114;2023-12-20T01:59:19;2.80;99.90
18794;DHT22;29610;49.022;12.114;2023-12-20T02:01:48;2.80;99.90
18794;DHT22;29610;49.022;12.114;2023-12-20T02:04:17;2.80;99.90
18794;DHT22;29610;49.022;12.114;2023-12-20T02:06:46;2.90;99.90
18794;DHT22;29610;49.022;12.114;2023-12-20T02:09:15;2.90;99.90
18794;DHT22;29610;49.022;12.114;2023-12-20T02:11:45;3.00;99.90
18794;DHT22;29610;49.022;12.114;2023-12-20T02:14:13;3.00;99.90
18794;DHT22;29610;49.022;12.114;2023-12-20T02:16:41;2.70;99.90
18794;DHT22;29610;49.022;12.114;2023-12-20T02:19:13;3.00;99.90
18794;DHT22;29610;49.022;12.114;2023-12-20T02:21:44;3.00;99.90
18794;DHT22;29610;49.022;12.114;2023-12-20T02:24:12;3.10;99.90
18794;DHT22;29610;49.022;12.114;2023-12-20T02:26:40;3.10;99.90
18794;DHT22;29610;49.022;12.114;2023-12-20T02:29:12;3.10;99.90
18794;DHT22;29610;49.022;12.114;2023-12-20T02:31:40;3.10;99.90
18794;DHT22;29610;49.022;12.114;2023-12-20T02:34:09;3.10;99.90
18794;DHT22;29610;49.022;12.114;2023-12-20T02:36:37;3.20;99.90
18794;DHT22;29610;49.022;12.114;2023-12-20T02:39:07;3.20;99.90
18794;DHT22;29610;49.022;12.114;2023-12-20T02:41:35;3.20;99.90
18794;DHT22;29610;49.022;12.114;2023-12-20T02:44:03;3.20;99.90
18794;DHT22;29610;49.022;12.114;2023-12-20T02:46:32;3.20;99.90
18794;DHT22;29610;49.022;12.114;2023-12-20T02:49:00;3.20;99.90
18794;DHT22;29610;49.022;12.114;2023-12-20T02:51:28;3.20;99.90
18794;DHT22;29610;49.022;12.114;2023-12-20T02:53:56;3.30;99.90
18794;DHT22;29610;49.022;12.114;2023-12-20T02:56:26;3.30;99.90
18794;DHT22;29610;49.022;12.114;2023-12-20T02:58:54;4.00;99.90
18794;DHT22;29610;49.022;12.114;2023-12-20T03:01:22;3.40;99.90
18794;DHT22;29610;49.022;12.114;2023-12-20T03:03:51;3.40;99.90
18794;DHT22;29610;49.022;12.114;2023-12-20T03:06:19;3.40;99.90
18794;DHT22;29610;49.022;12.114;2023-12-20T03:08:47;3.40;99.90
18794;DHT22;29610;49.022;12.114;2023-12-20T03:11:16;3.50;99.90
18794;DHT22;29610;49.022;12.114;2023-12-20T03:13:45;3.50;99.90
18794;DHT22;29610;49.022;12.114;2023-12-20T03:16:13;3.50;99.90
18794;DHT22;29610;49.022;12.114;2023-12-20T03:18:43;3.50;99.90
18794;DHT22;29610;49.022;12.114;2023-12-20T03:21:11;3.50;99.90
18794;DHT22;29610;49.022;12.114;2023-12-20T03:23:40;3.50;99.90
18794;DHT22;29610;49.022;12.114;2023-12-20T03:26:09;3.50;99.90
18794;DHT22;29610;49.022;12.114;2023-12-20T03:28:37;3.50;99.90
18794;DHT22;29610;49.022;12.114;2023-12-20T03:31:07;3.50;99.90
18794;DHT22;29610;49.022;12.114;2023-12-20T03:33:37;3.50;99.90
18794;DHT22;29610;49.022;12.114;2023-12-20T03:36:05;3.60;99.90
18794;DHT22;29610;49.022;12.114;2023-12-20T03:38:34;3.60;99.90
18794;DHT22;29610;49.022;12.114;2023-12-20T03:41:04;3.60;99.90
18794;DHT22;29610;49.022;12.114;2023-12-20T03:43:32;3.60;99.90
18794;DHT22;29610;49.022;12.114;2023-12-20T03:46:00;3.60;99.90
18794;DHT22;29610;49.022;12.114;2023-12-20T03:48:32;3.60;99.90
18794;DHT22;29610;49.022;12.114;2023-12-20T03:51:00;3.60;99.90
18794;DHT22;29610;49.022;12.114;2023-12-20T03:53:28;3.60;99.90
18794;DHT22;29610;49.022;12.114;2023-12-20T03:55:56;3.60;99.90
18794;DHT22;29610;49.022;12.114;2023-12-20T03:58:24;3.60;99.90
18794;DHT22;29610;49.022;12.114;2023-12-20T04:00:53;3.60;99.90
18794;DHT22;29610;49.022;12.114;2023-12-20T04:03:21;3.60;99.90
18794;DHT22;29610;49.022;12.114;2023-12-20T04:05:50;3.60;99.90
18794;DHT22;29610;49.022;12.114;2023-12-20T04:08:19;3.60;99.90
18794;DHT22;29610;49.022;12.114;2023-12-20T04:10:47;3.70;99.90
18794;DHT22;29610;49.022;12.114;2023-12-20T04:13:16;3.60;99.90
18794;DHT22;29610;49.022;12.114;2023-12-20T04:15:44;3.60;99.90
18794;DHT22;29610;49.022;12.114;2023-12-20T04:18:12;3.70;99.90
18794;DHT22;29610;49.022;12.114;2023-12-20T04:20:40;3.70;99.90
18794;DHT22;29610;49.022;12.114;2023-12-20T04:23:10;3.70;99.90
18794;DHT22;29610;49.022;12.114;2023-12-20T04:25:38;3.70;99.90
18794;DHT22;29610;49.022;12.114;2023-12-20T04:28:06;3.70;99.90
18794;DHT22;29610;49.022;12.114;2023-12-20T04:30:35;3.70;99.90
18794;DHT22;29610;49.022;12.114;2023-12-20T04:33:03;3.80;99.90
18794;DHT22;29610;49.022;12.114;2023-12-20T04:35:31;3.70;99.90
18794;DHT22;29610;49.022;12.114;2023-12-20T04:38:00;3.70;99.90
18794;DHT22;29610;49.022;12.114;2023-12-20T04:40:29;3.70;99.90
18794;DHT22;29610;49.022;12.114;2023-12-20T04:42:58;3.70;99.90
18794;DHT22;29610;49.022;12.114;2023-12-20T04:45:26;3.70;99.90
18794;DHT22;29610;49.022;12.114;2023-12-20T04:47:55;3.60;99.90
18794;DHT22;29610;49.022;12.114;2023-12-20T04:50:23;3.60;99.90
18794;DHT22;29610;49.022;12.114;2023-12-20T04:52:52;3.70;99.90
18794;DHT22;29610;49.022;12.114;2023-12-20T04:55:20;3.70;99.90
18794;DHT22;29610;49.022;12.114;2023-12-20T04:57:49;3.60;99.90
18794;DHT22;29610;49.022;12.114;2023-12-20T05:00:18;3.70;99.90
18794;DHT22;29610;49.022;12.114;2023-12-20T05:02:46;3.60;99.90
18794;DHT22;29610;49.022;12.114;2023-12-20T05:05:14;3.60;99.90
18794;DHT22;29610;49.022;12.114;2023-12-20T05:07:44;3.70;99.90
18794;DHT22;29610;49.022;12.114;2023-12-20T05:10:13;3.60;99.90
18794;DHT22;29610;49.022;12.114;2023-12-20T05:12:42;3.70;99.90
18794;DHT22;29610;49.022;12.114;2023-12-20T05:15:11;3.70;99.90
18794;DHT22;29610;49.022;12.114;2023-12-20T05:17:39;3.70;99.90
18794;DHT22;29610;49.022;12.114;2023-12-20T05:20:08;3.60;99.90
18794;DHT22;29610;49.022;12.114;2023-12-20T05:22:37;3.60;99.90
18794;DHT22;29610;49.022;12.114;2023-12-20T05:25:06;3.60;99.90
18794;DHT22;29610;49.022;12.114;2023-12-20T05:27:34;3.60;99.90
18794;DHT22;29610;49.022;12.114;2023-12-20T05:30:03;3.70;99.90
18794;DHT22;29610;49.022;12.114;2023-12-20T05:32:33;3.60;99.90
18794;DHT22;29610;49.022;12.114;2023-12-20T05:35:01;3.60;99.90
18794;DHT22;29610;49.022;12.114;2023-12-20T05:37:30;3.60;99.90
18794;DHT22;29610;49.022;12.114;2023-12-20T05:39:58;3.60;99.90
18794;DHT22;29610;49.022;12.114;2023-12-20T05:42:26;3.70;99.90
18794;DHT22;29610;49.022;12.114;2023-12-20T05:44:55;3.70;99.90
18794;DHT22;29610;49.022;12.114;2023-12-20T05:47:25;3.70;99.90
18794;DHT22;29610;49.022;12.114;2023-12-20T05:49:55;3.70;99.90
18794;DHT22;29610;49.022;12.114;2023-12-20T05:52:23;3.70;99.90
18794;DHT22;29610;49.022;12.114;2023-12-20T05:54:51;3.70;99.90
18794;DHT22;29610;49.022;12.114;2023-12-20T05:57:20;3.70;99.90
18794;DHT22;29610;49.022;12.114;2023-12-20T05:59:50;3.70;99.90
18794;DHT22;29610;49.022;12.114;2023-12-20T06:02:18;3.80;99.90
18794;DHT22;29610;49.022;12.114;2023-12-20T06:04:47;3.80;99.90
18794;DHT22;29610;49.022;12.114;2023-12-20T06:07:16;3.80;99.90
18794;DHT22;29610;49.022;12.114;2023-12-20T06:09:45;3.80;99.90
18794;DHT22;29610;49.022;12.114;2023-12-20T06:12:13;3.80;99.90
18794;DHT22;29610;49.022;12.114;2023-12-20T06:14:41;3.80;99.90
18794;DHT22;29610;49.022;12.114;2023-12-20T06:17:09;3.80;99.90
18794;DHT22;29610;49.022;12.114;2023-12-20T06:19:37;3.80;99.90
18794;DHT22;29610;49.022;12.114;2023-12-20T06:22:06;3.80;99.90
18794;DHT22;29610;49.022;12.114;2023-12-20T06:24:35;3.80;99.90
18794;DHT22;29610;49.022;12.114;2023-12-20T06:27:04;3.80;99.90
18794;DHT22;29610;49.022;12.114;2023-12-20T06:29:32;3.80;99.90
18794;DHT22;29610;49.022;12.114;2023-12-20T06:32:01;3.80;99.90
18794;DHT22;29610;49.022;12.114;2023-12-20T06:34:30;3.80;99.90
18794;DHT22;29610;49.022;12.114;2023-12-20T06:36:58;3.80;99.90
18794;DHT22;29610;49.022;12.114;2023-12-20T06:39:26;3.80;99.90
18794;DHT22;29610;49.022;12.114;2023-12-20T06:41:57;3.80;99.90
18794;DHT22;29610;49.022;12.114;2023-12-20T06:44:25;3.80;99.90
18794;DHT22;29610;49.022;12.114;2023-12-20T06:46:54;3.80;99.90
18794;DHT22;29610;49.022;12.114;2023-12-20T06:49:22;3.80;99.90
18794;DHT22;29610;49.022;12.114;2023-12-20T06:51:50;3.80;99.90
18794;DHT22;29610;49.022;12.114;2023-12-20T06:54:20;3.80;99.90
18794;DHT22;29610;49.022;12.114;2023-12-20T06:56:48;3.80;99.90
18794;DHT22;29610;49.022;12.114;2023-12-20T06:59:17;3.90;99.90
18794;DHT22;29610;49.022;12.114;2023-12-20T07:01:47;3.80;99.90
18794;DHT22;29610;49.022;12.114;2023-12-20T07:04:17;3.90;99.90
18794;DHT22;29610;49.022;12.114;2023-12-20T07:06:47;3.90;99.90
18794;DHT22;29610;49.022;12.114;2023-12-20T07:09:18;3.90;99.90
18794;DHT22;29610;49.022;12.114;2023-12-20T07:11:47;3.90;99.90
18794;DHT22;29610;49.022;12.114;2023-12-20T07:14:15;3.80;99.90
18794;DHT22;29610;49.022;12.114;2023-12-20T07:16:44;3.90;99.90
18794;DHT22;29610;49.022;12.114;2023-12-20T07:19:12;5.10;99.90
18794;DHT22;29610;49.022;12.114;2023-12-20T07:21:41;3.90;99.90
18794;DHT22;29610;49.022;12.114;2023-12-20T07:24:09;3.90;99.90
18794;DHT22;29610;49.022;12.114;2023-12-20T07:26:38;3.90;99.90
18794;DHT22;29610;49.022;12.114;2023-12-20T07:29:06;3.90;99.90
18794;DHT22;29610;49.022;12.114;2023-12-20T07:31:35;3.90;99.90
18794;DHT22;29610;49.022;12.114;2023-12-20T07:34:04;3.80;99.90
18794;DHT22;29610;49.022;12.114;2023-12-20T07:36:33;3.80;99.90
18794;DHT22;29610;49.022;12.114;2023-12-20T07:39:01;3.80;99.90
18794;DHT22;29610;49.022;12.114;2023-12-20T07:41:29;3.90;99.90
18794;DHT22;29610;49.022;12.114;2023-12-20T07:43:58;3.80;99.90
18794;DHT22;29610;49.022;12.114;2023-12-20T07:46:26;3.80;99.90
18794;DHT22;29610;49.022;12.114;2023-12-20T07:48:54;3.80;99.90
18794;DHT22;29610;49.022;12.114;2023-12-20T07:51:24;3.90;99.90
18794;DHT22;29610;49.022;12.114;2023-12-20T07:53:52;3.90;99.90
18794;DHT22;29610;49.022;12.114;2023-12-20T07:56:21;3.20;99.90
18794;DHT22;29610;49.022;12.114;2023-12-20T07:58:49;3.90;99.90
18794;DHT22;29610;49.022;12.114;2023-12-20T08:01:20;3.80;99.90
18794;DHT22;29610;49.022;12.114;2023-12-20T08:03:49;3.80;99.90
18794;DHT22;29610;49.022;12.114;2023-12-20T08:06:18;3.80;99.90
18794;DHT22;29610;49.022;12.114;2023-12-20T08:08:48;3.90;99.90
18794;DHT22;29610;49.022;12.114;2023-12-20T08:11:28;3.90;99.90
18794;DHT22;29610;49.022;12.114;2023-12-20T08:13:56;3.90;99.90
18794;DHT22;29610;49.022;12.114;2023-12-20T08:16:25;3.90;99.90
18794;DHT22;29610;49.022;12.114;2023-12-20T08:18:53;3.90;99.90
18794;DHT22;29610;49.022;12.114;2023-12-20T08:21:21;4.00;99.90
18794;DHT22;29610;49.022;12.114;2023-12-20T08:23:51;4.00;99.90
18794;DHT22;29610;49.022;12.114;2023-12-20T08:26:19;4.00;99.90
18794;DHT22;29610;49.022;12.114;2023-12-20T08:28:49;4.00;99.90
18794;DHT22;29610;49.022;12.114;2023-12-20T08:31:17;4.10;99.90
18794;DHT22;29610;49.022;12.114;2023-12-20T08:33:47;4.10;99.90
18794;DHT22;29610;49.022;12.114;2023-12-20T08:36:18;5.10;99.90
18794;DHT22;29610;49.022;12.114;2023-12-20T08:38:48;4.80;99.90
18794;DHT22;29610;49.022;12.114;2023-12-20T08:41:18;4.10;99.90
18794;DHT22;29610;49.022;12.114;2023-12-20T08:43:47;4.20;99.90
18794;DHT22;29610;49.022;12.114;2023-12-20T08:46:15;4.20;99.90
18794;DHT22;29610;49.022;12.114;2023-12-20T08:48:43;4.20;99.90
18794;DHT22;29610;49.022;12.114;2023-12-20T08:51:13;4.10;99.90
18794;DHT22;29610;49.022;12.114;2023-12-20T08:53:41;4.20;99.90
18794;DHT22;29610;49.022;12.114;2023-12-20T08:56:11;4.20;99.90
18794;DHT22;29610;49.022;12.114;2023-12-20T08:58:41;4.20;99.90
18794;DHT22;29610;49.022;12.114;2023-12-20T09:01:09;4.20;99.90
18794;DHT22;29610;49.022;12.114;2023-12-20T09:03:39;4.30;99.90
18794;DHT22;29610;49.022;12.114;2023-12-20T09:06:07;4.40;99.90
18794;DHT22;29610;49.022;12.114;2023-12-20T09:08:35;4.40;99.90
18794;DHT22;29610;49.022;12.114;2023-12-20T09:11:04;4.40;99.90
18794;DHT22;29610;49.022;12.114;2023-12-20T09:13:32;4.40;99.90
18794;DHT22;29610;49.022;12.114;2023-12-20T09:16:03;4.50;99.90
18794;DHT22;29610;49.022;12.114;2023-12-20T09:18:31;4.50;99.90
18794;DHT22;29610;49.022;12.114;2023-12-20T09:21:00;4.50;99.90
18794;DHT22;29610;49.022;12.114;2023-12-20T09:23:28;4.60;99.90
18794;DHT22;29610;49.022;12.114;2023-12-20T09:25:57;4.60;99.90
18794;DHT22;29610;49.022;12.114;2023-12-20T09:28:25;4.60;99.90
18794;DHT22;29610;49.022;12.114;2023-12-20T09:30:53;4.70;99.90
18794;DHT22;29610;49.022;12.114;2023-12-20T09:33:23;4.80;99.90
18794;DHT22;29610;49.022;12.114;2023-12-20T09:35:51;4.80;99.90
18794;DHT22;29610;49.022;12.114;2023-12-20T09:38:20;4.80;99.90
18794;DHT22;29610;49.022;12.114;2023-12-20T09:40:49;4.80;99.90
18794;DHT22;29610;49.022;12.114;2023-12-20T09:43:19;4.80;99.90
18794;DHT22;29610;49.022;12.114;2023-12-20T09:45:53;4.80;99.90
18794;DHT22;29610;49.022;12.114;2023-12-20T09:48:24;5.50;99.90
18794;DHT22;29610;49.022;12.114;2023-12-20T09:50:55;4.90;99.90
18794;DHT22;29610;49.022;12.114;2023-12-20T09:53:25;5.00;99.90
18794;DHT22;29610;49.022;12.114;2023-12-20T09:55:58;5.10;99.90
18794;DHT22;29610;49.022;12.114;2023-12-20T09:58:27;5.00;99.90
18794;DHT22;29610;49.022;12.114;2023-12-20T10:00:56;5.00;99.90
18794;DHT22;29610;49.022;12.114;2023-12-20T10:03:26;4.90;99.90
18794;DHT22;29610;49.022;12.114;2023-12-20T10:05:56;5.00;99.90
18794;DHT22;29610;49.022;12.114;2023-12-20T10:08:25;5.10;99.90
18794;DHT22;29610;49.022;12.114;2023-12-20T10:10:54;5.20;99.90
18794;DHT22;29610;49.022;12.114;2023-12-20T10:13:24;5.20;99.90
18794;DHT22;29610;49.022;12.114;2023-12-20T10:15:55;5.10;99.90
18794;DHT22;29610;49.022;12.114;2023-12-20T10:18:25;5.10;99.90
18794;DHT22;29610;49.022;12.114;2023-12-20T10:21:06;5.10;99.90
18794;DHT22;29610;49.022;12.114;2023-12-20T10:23:37;5.40;99.90
18794;DHT22;29610;49.022;12.114;2023-12-20T10:26:06;5.60;99.90
18794;DHT22;29610;49.022;12.114;2023-12-20T10:28:34;5.70;99.90
18794;DHT22;29610;49.022;12.114;2023-12-20T10:31:02;5.70;99.90
18794;DHT22;29610;49.022;12.114;2023-12-20T10:33:32;5.70;99.90
18794;DHT22;29610;49.022;12.114;2023-12-20T10:36:01;5.60;99.90
18794;DHT22;29610;49.022;12.114;2023-12-20T10:38:30;5.70;99.90
18794;DHT22;29610;49.022;12.114;2023-12-20T10:40:59;5.60;99.90
18794;DHT22;29610;49.022;12.114;2023-12-20T10:43:30;5.40;99.90
18794;DHT22;29610;49.022;12.114;2023-12-20T10:46:03;5.30;99.90
18794;DHT22;29610;49.022;12.114;2023-12-20T10:48:34;5.20;99.90
18794;DHT22;29610;49.022;12.114;2023-12-20T10:51:05;5.20;99.90
18794;DHT22;29610;49.022;12.114;2023-12-20T10:53:35;5.10;99.90
18794;DHT22;29610;49.022;12.114;2023-12-20T10:56:08;5.10;99.90
18794;DHT22;29610;49.022;12.114;2023-12-20T10:58:43;5.20;99.90
18794;DHT22;29610;49.022;12.114;2023-12-20T11:01:14;5.30;99.90
18794;DHT22;29610;49.022;12.114;2023-12-20T11:03:49;5.50;99.90
18794;DHT22;29610;49.022;12.114;2023-12-20T11:06:27;5.70;99.90
18794;DHT22;29610;49.022;12.114;2023-12-20T11:09:10;5.90;99.90
18794;DHT22;29610;49.022;12.114;2023-12-20T11:11:59;6.10;99.90
18794;DHT22;29610;49.022;12.114;2023-12-20T11:14:42;6.20;99.90
18794;DHT22;29610;49.022;12.114;2023-12-20T11:17:15;6.00;99.90
18794;DHT22;29610;49.022;12.114;2023-12-20T11:20:08;5.80;99.90
18794;DHT22;29610;49.022;12.114;2023-12-20T11:22:40;5.60;99.90
18794;DHT22;29610;49.022;12.114;2023-12-20T11:25:21;5.80;99.90
18794;DHT22;29610;49.022;12.114;2023-12-20T11:28:07;5.90;99.90
18794;DHT22;29610;49.022;12.114;2023-12-20T11:30:41;6.00;99.90
18794;DHT22;29610;49.022;12.114;2023-12-20T11:33:11;6.10;99.90
18794;DHT22;29610;49.022;12.114;2023-12-20T11:35:42;6.20;99.90
18794;DHT22;29610;49.022;12.114;2023-12-20T11:38:10;6.10;99.90
18794;DHT22;29610;49.022;12.114;2023-12-20T11:40:42;6.00;99.90
18794;DHT22;29610;49.022;12.114;2023-12-20T11:43:11;5.90;99.90
18794;DHT22;29610;49.022;12.114;2023-12-20T11:45:49;6.00;99.90
18794;DHT22;29610;49.022;12.114;2023-12-20T11:48:19;6.20;99.90
18794;DHT22;29610;49.022;12.114;2023-12-20T11:50:49;6.30;99.90
18794;DHT22;29610;49.022;12.114;2023-12-20T11:53:17;6.60;99.90
18794;DHT22;29610;49.022;12.114;2023-12-20T11:55:47;6.60;99.90
18794;DHT22;29610;49.022;12.114;2023-12-20T11:58:16;6.80;99.90
18794;DHT22;29610;49.022;12.114;2023-12-20T12:00:45;6.80;99.90
18794;DHT22;29610;49.022;12.114;2023-12-20T12:03:15;6.80;99.90
18794;DHT22;29610;49.022;12.114;2023-12-20T12:05:43;6.90;99.90
18794;DHT22;29610;49.022;12.114;2023-12-20T12:08:16;6.90;99.70
18794;DHT22;29610;49.022;12.114;2023-12-20T12:10:45;6.80;99.50
18794;DHT22;29610;49.022;12.114;2023-12-20T12:13:13;6.70;99.10
18794;DHT22;29610;49.022;12.114;2023-12-20T12:15:42;6.60;99.40
18794;DHT22;29610;49.022;12.114;2023-12-20T12:18:15;7.10;99.20
18794;DHT22;29610;49.022;12.114;2023-12-20T12:20:44;7.30;99.50
18794;DHT22;29610;49.022;12.114;2023-12-20T12:23:12;6.10;99.50
18794;DHT22;29610;49.022;12.114;2023-12-20T12:25:42;6.80;98.70
18794;DHT22;29610;49.022;12.114;2023-12-20T12:28:12;5.80;98.40
18794;DHT22;29610;49.022;12.114;2023-12-20T12:30:41;5.80;98.30
18794;DHT22;29610;49.022;12.114;2023-12-20T12:33:19;5.70;98.60
18794;DHT22;29610;49.022;12.114;2023-12-20T12:35:48;5.70;99.20
18794;DHT22;29610;49.022;12.114;2023-12-20T12:38:19;5.60;99.60
18794;DHT22;29610;49.022;12.114;2023-12-20T12:40:49;5.60;99.60
18794;DHT22;29610;49.022;12.114;2023-12-20T12:43:17;5.50;99.20
18794;DHT22;29610;49.022;12.114;2023-12-20T12:45:45;5.60;99.50
18794;DHT22;29610;49.022;12.114;2023-12-20T12:48:14;5.70;99.00
18794;DHT22;29610;49.022;12.114;2023-12-20T12:50:43;5.80;98.70
18794;DHT22;29610;49.022;12.114;2023-12-20T12:53:11;5.80;98.80
18794;DHT22;29610;49.022;12.114;2023-12-20T12:55:40;5.90;98.70
18794;DHT22;29610;49.022;12.114;2023-12-20T12:58:10;5.90;98.90
18794;DHT22;29610;49.022;12.114;2023-12-20T13:00:38;5.90;98.80
18794;DHT22;29610;49.022;12.114;2023-12-20T13:03:06;5.80;98.70
18794;DHT22;29610;49.022;12.114;2023-12-20T13:05:35;5.70;99.20
18794;DHT22;29610;49.022;12.114;2023-12-20T13:08:07;5.70;99.20
18794;DHT22;29610;49.022;12.114;2023-12-20T13:10:36;5.70;99.60
18794;DHT22;29610;49.022;12.114;2023-12-20T13:13:04;5.70;99.30
18794;DHT22;29610;49.022;12.114;2023-12-20T13:15:34;5.60;99.60
18794;DHT22;29610;49.022;12.114;2023-12-20T13:18:02;5.60;99.90
18794;DHT22;29610;49.022;12.114;2023-12-20T13:20:33;5.70;99.90
18794;DHT22;29610;49.022;12.114;2023-12-20T13:23:01;5.80;99.60
18794;DHT22;29610;49.022;12.114;2023-12-20T13:25:30;5.60;99.90
18794;DHT22;29610;49.022;12.114;2023-12-20T13:27:58;5.60;99.90
18794;DHT22;29610;49.022;12.114;2023-12-20T13:30:27;5.50;99.90
18794;DHT22;29610;49.022;12.114;2023-12-20T13:32:56;5.40;99.90
18794;DHT22;29610;49.022;12.114;2023-12-20T13:35:25;5.40;99.90
18794;DHT22;29610;49.022;12.114;2023-12-20T13:37:53;5.40;99.90
18794;DHT22;29610;49.022;12.114;2023-12-20T13:40:23;5.30;99.90
18794;DHT22;29610;49.022;12.114;2023-12-20T13:42:51;5.30;99.90
18794;DHT22;29610;49.022;12.114;2023-12-20T13:45:21;5.30;99.90
18794;DHT22;29610;49.022;12.114;2023-12-20T13:47:50;5.40;99.90
18794;DHT22;29610;49.022;12.114;2023-12-20T13:50:19;5.30;99.90
18794;DHT22;29610;49.022;12.114;2023-12-20T13:52:48;5.30;99.90
18794;DHT22;29610;49.022;12.114;2023-12-20T13:55:16;5.20;99.90
18794;DHT22;29610;49.022;12.114;2023-12-20T13:57:48;5.10;99.90
18794;DHT22;29610;49.022;12.114;2023-12-20T14:00:22;5.00;99.90
18794;DHT22;29610;49.022;12.114;2023-12-20T14:02:51;5.00;99.90
18794;DHT22;29610;49.022;12.114;2023-12-20T14:05:20;5.00;99.90
18794;DHT22;29610;49.022;12.114;2023-12-20T14:07:55;5.00;99.90
18794;DHT22;29610;49.022;12.114;2023-12-20T14:10:24;4.90;99.90
18794;DHT22;29610;49.022;12.114;2023-12-20T14:12:53;4.90;99.90
18794;DHT22;29610;49.022;12.114;2023-12-20T14:15:22;4.90;99.90
18794;DHT22;29610;49.022;12.114;2023-12-20T14:17:52;4.80;99.90
18794;DHT22;29610;49.022;12.114;2023-12-20T14:20:23;4.80;99.90
18794;DHT22;29610;49.022;12.114;2023-12-20T14:22:51;4.70;99.90
18794;DHT22;29610;49.022;12.114;2023-12-20T14:25:19;4.70;99.90
18794;DHT22;29610;49.022;12.114;2023-12-20T14:27:50;4.70;99.90
18794;DHT22;29610;49.022;12.114;2023-12-20T14:30:18;4.70;99.90
18794;DHT22;29610;49.022;12.114;2023-12-20T14:32:46;4.80;99.90
18794;DHT22;29610;49.022;12.114;2023-12-20T14:35:15;4.80;99.90
18794;DHT22;29610;49.022;12.114;2023-12-20T14:37:45;4.80;99.90
18794;DHT22;29610;49.022;12.114;2023-12-20T14:40:14;4.80;99.90
18794;DHT22;29610;49.022;12.114;2023-12-20T14:42:46;4.70;99.90
18794;DHT22;29610;49.022;12.114;2023-12-20T14:45:15;4.60;99.90
18794;DHT22;29610;49.022;12.114;2023-12-20T14:47:43;4.50;99.90
18794;DHT22;29610;49.022;12.114;2023-12-20T14:50:15;4.40;99.90
18794;DHT22;29610;49.022;12.114;2023-12-20T14:52:47;4.30;99.90
18794;DHT22;29610;49.022;12.114;2023-12-20T14:55:15;4.30;99.90
18794;DHT22;29610;49.022;12.114;2023-12-20T14:57:44;4.40;99.90
18794;DHT22;29610;49.022;12.114;2023-12-20T15:00:13;4.40;99.90
18794;DHT22;29610;49.022;12.114;2023-12-20T15:02:43;4.40;99.90
18794;DHT22;29610;49.022;12.114;2023-12-20T15:05:12;4.40;99.90
18794;DHT22;29610;49.022;12.114;2023-12-20T15:07:41;4.40;99.90
18794;DHT22;29610;49.022;12.114;2023-12-20T15:10:11;4.50;99.90
18794;DHT22;29610;49.022;12.114;2023-12-20T15:12:39;4.50;99.90
18794;DHT22;29610;49.022;12.114;2023-12-20T15:15:08;4.40;99.90
18794;DHT22;29610;49.022;12.114;2023-12-20T15:17:37;4.20;99.90
18794;DHT22;29610;49.022;12.114;2023-12-20T15:20:06;4.00;99.90
18794;DHT22;29610;49.022;12.114;2023-12-20T15:22:36;3.90;99.90
18794;DHT22;29610;49.022;12.114;2023-12-20T15:25:07;3.80;99.90
18794;DHT22;29610;49.022;12.114;2023-12-20T15:27:37;3.70;99.90
18794;DHT22;29610;49.022;12.114;2023-12-20T15:30:06;3.70;99.90
18794;DHT22;29610;49.022;12.114;2023-12-20T15:32:38;3.60;99.90
18794;DHT22;29610;49.022;12.114;2023-12-20T15:35:07;3.50;99.90
18794;DHT22;29610;49.022;12.114;2023-12-20T15:37:38;3.50;99.90
18794;DHT22;29610;49.022;12.114;2023-12-20T15:40:08;3.60;99.90
18794;DHT22;29610;49.022;12.114;2023-12-20T15:42:39;3.60;99.90